Time;durP1;ratioP1;P1;durP2;ratioP2;P2;SDS_P1;SDS_P2;PMS_P1;PMS_P2;Temp;Humidity;BMP_temperature;BMP_pressure;BME280_temperature;BME280_humidity;BME280_pressure;Samples;Min_cycle;Max_cycle;Signal;HPM_P1;HPM_P2
2021/12/24 17:33:25;;;;;;;20.27;5.22;;;22.50;88.50;;;;;;5004952;28;20212;-68
2021/12/24 17:35:52;;;;;;;18.15;3.67;;;22.50;88.40;;;;;;5010429;28;20121;-68
2021/12/24 17:38:19;;;;;;;18.30;4.57;;;22.50;88.50;;;;;;5012869;28;20073;-68
2021/12/24 17:40:48;;;;;;;16.60;4.18;;;22.50;88.50;;;;;;4995392;28;20072;-68
2021/12/24 17:43:16;;;;;;;13.60;5.13;;;22.50;88.40;;;;;;5012998;28;20076;-68
2021/12/24 17:45:43;;;;;;;13.82;4.50;;;22.50;88.40;;;;;;5012797;28;20408;-68
2021/12/24 17:48:11;;;;;;;13.27;4.20;;;22.40;88.60;;;;;;4995745;28;20033;-68
2021/12/24 17:50:38;;;;;;;16.67;4.72;;;22.40;88.60;;;;;;4995764;28;20378;-68
2021/12/24 17:53:05;;;;;;;13.70;4.13;;;22.40;88.70;;;;;;5013003;28;20072;-68
2021/12/24 17:55:33;;;;;;;16.80;3.92;;;22.40;88.80;;;;;;5030697;28;20029;-68
2021/12/24 17:58:00;;;;;;;13.48;4.18;;;22.40;88.70;;;;;;5032951;28;20364;-68
2021/12/24 18:00:27;;;;;;;15.32;4.20;;;22.40;88.80;;;;;;5032771;28;20123;-68
2021/12/24 18:02:54;;;;;;;14.50;4.82;;;22.30;88.70;;;;;;5033167;28;20375;-68
2021/12/24 18:05:22;;;;;;;14.20;4.68;;;22.30;88.80;;;;;;5033020;28;20119;-68
2021/12/24 18:07:50;;;;;;;15.63;3.63;;;22.30;88.80;;;;;;5032462;28;20112;-68
2021/12/24 18:10:18;;;;;;;23.95;5.10;;;22.30;88.80;;;;;;5015192;28;20119;-69
2021/12/24 18:12:45;;;;;;;14.38;4.60;;;22.30;88.90;;;;;;5015296;28;20050;-68
2021/12/24 18:15:13;;;;;;;14.77;4.90;;;22.30;88.90;;;;;;5032622;28;20041;-69
2021/12/24 18:17:40;;;;;;;15.35;3.80;;;22.30;88.80;;;;;;5032422;28;20029;-69
2021/12/24 18:20:10;;;;;;;17.08;5.30;;;22.30;88.80;;;;;;5014579;28;20452;-69
2021/12/24 18:22:37;;;;;;;12.38;4.47;;;22.30;88.80;;;;;;5014718;28;20491;-69
2021/12/24 18:25:05;;;;;;;17.40;4.95;;;22.20;88.90;;;;;;5014793;28;20029;-68
2021/12/24 18:27:32;;;;;;;22.65;5.53;;;22.20;88.90;;;;;;5032091;28;20124;-68
2021/12/24 18:29:59;;;;;;;16.13;4.65;;;22.20;89.00;;;;;;5031956;28;20025;-69
2021/12/24 18:32:26;;;;;;;18.38;5.22;;;22.20;89.00;;;;;;5032570;28;20060;-69
2021/12/24 18:34:53;;;;;;;16.40;4.22;;;22.20;89.20;;;;;;5032145;28;20052;-69
2021/12/24 18:37:24;;;;;;;15.38;4.53;;;22.20;89.20;;;;;;5032173;28;20075;-69
2021/12/24 18:39:51;;;;;;;13.50;4.30;;;22.20;89.20;;;;;;5032151;28;20034;-69
2021/12/24 18:42:18;;;;;;;16.52;4.90;;;22.20;89.30;;;;;;5031859;28;20033;-69
2021/12/24 18:44:47;;;;;;;15.70;4.55;;;22.20;89.40;;;;;;5032091;28;20496;-69
2021/12/24 18:47:14;;;;;;;17.67;5.03;;;22.20;89.50;;;;;;5032339;28;20056;-68
2021/12/24 18:49:42;;;;;;;13.80;4.57;;;22.20;89.50;;;;;;5014628;28;20080;-69
2021/12/24 18:52:09;;;;;;;16.42;5.00;;;22.20;89.80;;;;;;5032138;28;20060;-69
2021/12/24 18:54:36;;;;;;;18.40;5.40;;;22.20;89.80;;;;;;5031725;28;20033;-68
2021/12/24 18:57:04;;;;;;;12.82;4.32;;;22.20;89.80;;;;;;5031880;28;20061;-68
2021/12/24 18:59:31;;;;;;;11.13;4.10;;;22.20;89.90;;;;;;5031831;28;20112;-68
2021/12/24 19:01:58;;;;;;;15.35;4.95;;;22.20;89.90;;;;;;5031955;28;20030;-68
2021/12/24 19:04:25;;;;;;;14.60;4.38;;;22.20;89.90;;;;;;5031673;28;20060;-68
2021/12/24 19:06:52;;;;;;;14.52;4.45;;;22.20;89.90;;;;;;5031681;28;20042;-69
2021/12/24 19:09:25;;;;;;;14.35;4.28;;;22.30;89.90;;;;;;5031230;28;20121;-68
2021/12/24 19:11:52;;;;;;;16.58;4.25;;;22.30;90.00;;;;;;5031690;28;20410;-67
2021/12/24 19:14:20;;;;;;;16.73;4.53;;;22.40;90.00;;;;;;5031805;28;20033;-67
2021/12/24 19:16:47;;;;;;;13.20;4.95;;;22.60;89.70;;;;;;5031798;28;20091;-67
2021/12/24 19:19:17;;;;;;;11.65;4.05;;;22.70;89.40;;;;;;5031584;28;20391;-67
2021/12/24 19:21:45;;;;;;;16.83;4.93;;;22.80;88.70;;;;;;5014314;28;20402;-67
2021/12/24 19:24:12;;;;;;;12.15;4.28;;;23.00;88.30;;;;;;5014361;28;20080;-67
2021/12/24 19:26:39;;;;;;;12.40;4.30;;;23.10;88.10;;;;;;5031612;28;20041;-67
2021/12/24 19:29:06;;;;;;;14.63;4.72;;;23.30;88.20;;;;;;5031396;28;20553;-67
2021/12/24 19:31:34;;;;;;;14.25;4.63;;;23.50;87.20;;;;;;5031748;28;20037;-68
2021/12/24 19:34:01;;;;;;;15.70;4.90;;;23.60;86.80;;;;;;5031531;28;20542;-68
2021/12/24 19:36:29;;;;;;;14.15;4.85;;;23.70;86.40;;;;;;5031462;28;20041;-67
2021/12/24 19:38:57;;;;;;;16.90;5.40;;;23.80;86.20;;;;;;5031344;28;20030;-68
2021/12/24 19:41:24;;;;;;;13.52;4.60;;;23.80;86.20;;;;;;5031312;28;20048;-68
2021/12/24 19:43:51;;;;;;;11.77;4.25;;;23.80;85.80;;;;;;5014064;28;20037;-68
2021/12/24 19:46:18;;;;;;;17.30;5.25;;;23.90;85.50;;;;;;5031549;28;20129;-67
2021/12/24 19:48:45;;;;;;;17.63;4.65;;;24.00;85.50;;;;;;5031319;28;20029;-68
2021/12/24 19:51:12;;;;;;;13.63;3.90;;;24.00;85.40;;;;;;5034725;28;20041;-67
2021/12/24 19:53:40;;;;;;;12.75;4.40;;;24.10;85.30;;;;;;5017583;28;20033;-68
2021/12/24 19:56:07;;;;;;;12.27;4.60;;;24.10;85.30;;;;;;5035233;28;20032;-67
2021/12/24 19:58:35;;;;;;;15.05;4.68;;;24.10;85.20;;;;;;5035077;28;20072;-67
2021/12/24 20:01:02;;;;;;;14.98;4.28;;;24.10;85.20;;;;;;5017355;28;20107;-67
2021/12/24 20:03:29;;;;;;;15.75;4.75;;;24.10;85.30;;;;;;5034519;28;20095;-67
2021/12/24 20:05:56;;;;;;;14.35;4.57;;;24.20;85.40;;;;;;5034562;28;20045;-68
2021/12/24 20:08:25;;;;;;;16.67;4.38;;;24.20;85.40;;;;;;5034908;28;20045;-68
2021/12/24 20:10:53;;;;;;;11.65;3.75;;;24.20;85.30;;;;;;5035075;28;20041;-67
2021/12/24 20:13:20;;;;;;;12.13;3.38;;;24.20;85.00;;;;;;5035133;28;20025;-68
2021/12/24 20:15:48;;;;;;;10.98;4.00;;;24.20;85.10;;;;;;5034880;28;20030;-68
2021/12/24 20:18:15;;;;;;;13.73;4.38;;;24.20;85.30;;;;;;5035004;28;20037;-68
2021/12/24 20:20:42;;;;;;;13.52;4.78;;;24.20;85.10;;;;;;5017168;28;20496;-68
2021/12/24 20:23:10;;;;;;;10.10;3.80;;;24.20;85.20;;;;;;5034873;28;20048;-68
2021/12/24 20:25:38;;;;;;;12.40;3.92;;;24.20;85.30;;;;;;5034587;28;20403;-68
2021/12/24 20:28:07;;;;;;;13.75;3.63;;;24.30;85.20;;;;;;5034563;28;20077;-68
2021/12/24 20:30:34;;;;;;;8.27;3.05;;;24.30;84.90;;;;;;5000595;28;20120;-68
2021/12/24 20:33:02;;;;;;;11.18;3.33;;;24.40;85.00;;;;;;5016835;28;20053;-68
2021/12/24 20:35:29;;;;;;;10.25;3.38;;;24.40;84.90;;;;;;5034350;28;20048;-68
2021/12/24 20:37:56;;;;;;;9.35;2.83;;;24.50;84.80;;;;;;5034380;28;20080;-68
2021/12/24 20:40:24;;;;;;;9.75;2.65;;;24.60;84.50;;;;;;5034334;28;20129;-68
2021/12/24 20:42:51;;;;;;;10.55;3.38;;;24.60;84.10;;;;;;5016861;28;20025;-68
2021/12/24 20:45:19;;;;;;;9.43;2.88;;;24.70;83.80;;;;;;5016904;28;20042;-68
2021/12/24 20:47:47;;;;;;;11.70;3.13;;;24.70;83.80;;;;;;5034239;28;20160;-68
2021/12/24 20:50:36;;;;;;;9.45;2.80;;;24.80;83.50;;;;;;5016105;28;20064;-68
2021/12/24 20:53:05;;;;;;;10.15;2.95;;;24.80;83.30;;;;;;5034232;28;20030;-69
2021/12/24 20:55:33;;;;;;;9.15;3.22;;;24.80;83.10;;;;;;5016377;28;20431;-69
2021/12/24 20:58:00;;;;;;;10.55;3.38;;;24.90;83.10;;;;;;5016301;28;20392;-69
2021/12/24 21:00:27;;;;;;;9.10;2.85;;;25.00;82.60;;;;;;5033290;28;20065;-69
2021/12/24 21:02:55;;;;;;;9.73;4.65;;;25.00;81.90;;;;;;5015331;28;20107;-67
2021/12/24 21:05:22;;;;;;;13.60;5.25;;;25.00;81.50;;;;;;5016389;28;20395;-68
2021/12/24 21:07:49;;;;;;;10.18;6.20;;;25.00;82.00;;;;;;5016341;28;20166;-68
2021/12/24 21:10:18;;;;;;;9.95;3.63;;;25.00;82.10;;;;;;5016112;28;20055;-68
2021/12/24 21:12:45;;;;;;;11.80;3.78;;;25.00;81.90;;;;;;5033776;28;20056;-68
2021/12/24 21:15:12;;;;;;;7.60;3.03;;;25.00;81.70;;;;;;5033461;28;20441;-68
2021/12/24 21:17:40;;;;;;;10.82;2.88;;;25.00;82.00;;;;;;5034021;28;20037;-68
2021/12/24 21:20:09;;;;;;;7.85;2.70;;;24.90;82.00;;;;;;5033383;28;20044;-68
2021/12/24 21:22:36;;;;;;;8.07;3.13;;;24.90;81.80;;;;;;5033688;28;20032;-68
2021/12/24 21:25:04;;;;;;;5.40;2.42;;;24.90;81.60;;;;;;5015487;28;20075;-68
2021/12/24 21:27:31;;;;;;;11.10;2.95;;;24.90;81.40;;;;;;5033341;28;20030;-68
2021/12/24 21:29:58;;;;;;;8.38;2.38;;;25.00;81.90;;;;;;5033187;28;20037;-68
2021/12/24 21:32:26;;;;;;;6.07;2.88;;;25.10;81.50;;;;;;5033474;28;20499;-68
2021/12/24 21:34:53;;;;;;;9.68;2.63;;;25.10;81.20;;;;;;5032877;28;20212;-68
2021/12/24 21:37:20;;;;;;;5.60;2.45;;;25.10;81.00;;;;;;5032825;28;20057;-68
2021/12/24 21:39:47;;;;;;;5.53;2.50;;;25.10;80.90;;;;;;5032877;28;20038;-68
2021/12/24 21:42:14;;;;;;;7.63;2.42;;;25.10;80.60;;;;;;5033016;28;20083;-68
2021/12/24 21:44:42;;;;;;;4.88;2.17;;;25.10;80.30;;;;;;5033070;28;20031;-68
2021/12/24 21:47:09;;;;;;;9.95;2.60;;;25.00;80.10;;;;;;5032962;28;20041;-69
2021/12/24 21:49:36;;;;;;;6.68;2.30;;;25.00;80.60;;;;;;5032694;28;20048;-69
2021/12/24 21:52:05;;;;;;;4.75;2.05;;;24.90;80.60;;;;;;5032931;28;20056;-69
2021/12/24 21:54:34;;;;;;;5.55;2.22;;;24.90;80.50;;;;;;5033022;28;20034;-68
2021/12/24 21:57:01;;;;;;;6.32;2.10;;;24.90;80.50;;;;;;5032904;28;20049;-68
2021/12/24 21:59:28;;;;;;;5.40;2.10;;;24.90;80.20;;;;;;5033003;28;20072;-68
2021/12/24 22:01:55;;;;;;;7.00;2.30;;;24.90;79.80;;;;;;5032892;28;20026;-68
2021/12/24 22:04:38;;;;;;;5.40;2.05;;;25.00;79.70;;;;;;5032720;28;20037;-68
2021/12/24 22:09:51;;;;;;;11.73;6.45;;;25.20;79.30;;;;;;5032708;28;20040;-68
2021/12/24 22:12:18;;;;;;;8.35;5.05;;;25.20;78.00;;;;;;5031101;28;20038;-67
2021/12/24 22:14:45;;;;;;;8.98;2.60;;;25.30;79.30;;;;;;5032320;28;20025;-67
2021/12/24 22:17:12;;;;;;;5.47;2.65;;;25.40;78.60;;;;;;5032278;28;20037;-67
2021/12/24 22:19:40;;;;;;;4.60;2.05;;;25.50;78.20;;;;;;5032363;28;20057;-67
2021/12/24 22:22:28;;;;;;;5.82;2.38;;;25.50;77.60;;;;;;5032350;28;20037;-66
2021/12/24 22:24:54;;;;;;;6.05;2.13;;;25.50;77.50;;;;;;5032244;28;20125;-67
2021/12/24 22:27:21;;;;;;;5.03;2.20;;;25.60;76.90;;;;;;5032298;28;20034;-67
2021/12/24 22:29:48;;;;;;;4.63;2.30;;;25.70;76.30;;;;;;5032002;28;20055;-68
2021/12/24 22:32:15;;;;;;;7.95;2.40;;;25.80;76.60;;;;;;5032253;28;20440;-68
2021/12/24 22:34:42;;;;;;;3.22;2.00;;;25.80;75.80;;;;;;5031849;28;20041;-68
2021/12/24 22:37:13;;;;;;;6.50;2.38;;;25.80;75.60;;;;;;5014710;28;20480;-69
2021/12/24 22:39:46;;;;;;;5.22;2.00;;;25.90;76.20;;;;;;5032024;28;20080;-68
2021/12/24 22:42:13;;;;;;;7.55;2.40;;;25.90;76.10;;;;;;5014982;28;20080;-67
2021/12/24 22:44:41;;;;;;;5.95;2.20;;;26.00;76.00;;;;;;5013700;28;20350;-68
2021/12/24 22:47:08;;;;;;;5.63;2.00;;;26.00;75.90;;;;;;5031844;28;20128;-68
2021/12/24 22:49:35;;;;;;;4.90;2.38;;;26.10;75.60;;;;;;5030567;28;20385;-68
2021/12/24 22:52:11;;;;;;;8.63;7.18;;;26.20;75.70;;;;;;5032145;28;20029;-67
2021/12/24 22:54:39;;;;;;;6.90;2.80;;;26.20;75.80;;;;;;5032016;28;20025;-67
2021/12/24 22:57:06;;;;;;;7.88;2.38;;;26.30;75.30;;;;;;5014042;28;20399;-68
2021/12/24 22:59:35;;;;;;;6.00;2.22;;;26.40;74.80;;;;;;5014236;28;20037;-68
2021/12/24 23:02:03;;;;;;;8.07;2.10;;;26.40;74.50;;;;;;5032056;28;20057;-68
2021/12/24 23:04:31;;;;;;;4.13;2.20;;;26.50;73.10;;;;;;5031502;28;20033;-68
2021/12/24 23:06:58;;;;;;;5.07;2.20;;;26.60;73.20;;;;;;5030978;28;20045;-68
2021/12/24 23:09:25;;;;;;;5.93;2.30;;;26.70;72.70;;;;;;5014005;28;20029;-68
2021/12/24 23:11:52;;;;;;;4.55;2.10;;;26.80;73.30;;;;;;5031808;28;20045;-69
2021/12/24 23:14:19;;;;;;;7.82;2.70;;;26.80;72.30;;;;;;5031790;28;20083;-68
2021/12/24 23:16:47;;;;;;;5.53;1.90;;;26.90;72.10;;;;;;5032380;28;20037;-68
2021/12/24 23:19:18;;;;;;;3.13;1.88;;;27.00;71.50;;;;;;5031487;28;20044;-68
2021/12/24 23:21:48;;;;;;;3.58;1.80;;;27.00;71.00;;;;;;5031692;28;20037;-67
2021/12/24 23:24:16;;;;;;;3.88;2.08;;;27.00;70.80;;;;;;5032147;28;20527;-68
2021/12/24 23:26:44;;;;;;;3.88;1.67;;;27.10;70.40;;;;;;5035754;28;20064;-67
2021/12/24 23:29:11;;;;;;;4.32;1.48;;;27.10;68.10;;;;;;5035643;28;20038;-67
2021/12/24 23:31:39;;;;;;;2.22;1.90;;;27.20;67.90;;;;;;5035477;28;20518;-67
2021/12/24 23:34:06;;;;;;;5.63;2.65;;;27.30;66.40;;;;;;5017846;28;20048;-68
2021/12/24 23:36:33;;;;;;;7.32;2.00;;;27.40;65.60;;;;;;5017930;28;20030;-67
2021/12/24 23:39:00;;;;;;;4.43;1.80;;;27.40;67.10;;;;;;5035271;28;20116;-67
2021/12/24 23:41:27;;;;;;;5.45;2.03;;;27.50;68.00;;;;;;5035562;28;20029;-67
2021/12/24 23:44:00;;;;;;;5.43;1.90;;;27.50;67.90;;;;;;5035256;28;20030;-67
2021/12/24 23:49:26;;;;;;;6.10;2.00;;;27.50;69.20;;;;;;5001715;28;20045;-68
2021/12/24 23:51:54;;;;;;;5.65;2.30;;;27.50;70.00;;;;;;5017761;28;20034;-67
2021/12/24 23:54:21;;;;;;;9.18;2.38;;;27.40;70.20;;;;;;5035275;28;20045;-67
2021/12/24 23:56:49;;;;;;;6.57;2.03;;;27.40;68.50;;;;;;5035130;28;20041;-67
2021/12/24 23:59:19;;;;;;;5.38;1.98;;;27.40;69.60;;;;;;5017479;28;20040;-67
